createdAt,value
2018-07-13T00:00:22.420Z,18.6
2018-07-13T00:01:23.626Z,18.6
2018-07-13T00:02:24.822Z,18.6
2018-07-13T00:03:26.335Z,18.5
2018-07-13T00:04:27.591Z,18.4
2018-07-13T00:05:28.871Z,18.4
2018-07-13T00:06:30.096Z,18.4
2018-07-13T00:07:31.303Z,18.3
2018-07-13T00:08:32.514Z,18.4
2018-07-13T00:09:33.723Z,18.3
2018-07-13T00:10:34.905Z,18.4
2018-07-13T00:11:36.458Z,18.3
2018-07-13T00:12:37.664Z,18.3
2018-07-13T00:13:38.851Z,18.3
2018-07-13T00:14:40.152Z,18.3
2018-07-13T00:15:41.370Z,18.3
2018-07-13T00:16:42.555Z,18.2
2018-07-13T00:17:43.731Z,18.2
2018-07-13T00:18:44.927Z,18.2
2018-07-13T00:19:46.146Z,18.2
2018-07-13T00:20:47.303Z,18.2
2018-07-13T00:21:48.578Z,18.1
2018-07-13T00:22:49.743Z,18.1
2018-07-13T00:23:50.930Z,18.1
2018-07-13T00:24:52.117Z,18.1
2018-07-13T00:25:53.343Z,18.1
2018-07-13T00:26:54.630Z,18.1
2018-07-13T00:27:55.789Z,18
2018-07-13T00:28:56.970Z,18
2018-07-13T00:29:58.270Z,18
2018-07-13T00:30:59.491Z,17.9
2018-07-13T00:32:00.687Z,17.9
2018-07-13T00:33:02.118Z,18
2018-07-13T00:34:03.387Z,17.9
2018-07-13T00:35:04.873Z,18
2018-07-13T00:36:06.174Z,17.9
2018-07-13T00:37:07.426Z,17.9
2018-07-13T00:38:08.690Z,17.9
2018-07-13T00:39:09.927Z,17.9
2018-07-13T00:40:11.134Z,17.9
2018-07-13T00:41:12.373Z,17.8
2018-07-13T00:42:13.637Z,17.8
2018-07-13T00:43:14.820Z,17.8
2018-07-13T00:44:16.034Z,17.9
2018-07-13T00:45:17.181Z,17.8
2018-07-13T00:46:18.411Z,17.8
2018-07-13T00:47:19.661Z,17.8
2018-07-13T00:48:20.834Z,17.7
2018-07-13T00:49:22.037Z,17.8
2018-07-13T00:50:23.283Z,17.8
2018-07-13T00:51:24.485Z,17.7
2018-07-13T00:52:25.704Z,17.7
2018-07-13T00:53:26.879Z,17.8
2018-07-13T00:54:28.130Z,17.8
2018-07-13T00:55:29.351Z,17.7
2018-07-13T00:56:30.794Z,17.6
2018-07-13T00:57:32.187Z,17.6
2018-07-13T00:58:33.371Z,17.7
2018-07-13T00:59:34.582Z,17.7
2018-07-13T01:00:35.773Z,17.7
2018-07-13T01:01:36.965Z,17.7
2018-07-13T01:02:38.242Z,17.7
2018-07-13T01:03:39.422Z,17.6
2018-07-13T01:04:40.598Z,17.6
2018-07-13T01:05:41.769Z,17.7
2018-07-13T01:06:42.999Z,17.7
2018-07-13T01:07:44.220Z,17.7
2018-07-13T01:08:45.403Z,17.6
2018-07-13T01:09:46.606Z,17.6
2018-07-13T01:10:47.822Z,17.6
2018-07-13T01:11:49.015Z,17.7
2018-07-13T01:12:50.478Z,17.6
2018-07-13T01:13:51.679Z,17.7
2018-07-13T01:14:52.834Z,17.7
2018-07-13T01:15:54.035Z,17.6
2018-07-13T01:16:55.234Z,17.7
2018-07-13T01:17:56.471Z,17.6
2018-07-13T01:18:57.665Z,17.6
2018-07-13T01:19:58.932Z,17.5
2018-07-13T01:21:00.095Z,17.6
2018-07-13T01:22:01.311Z,17.6
2018-07-13T01:23:02.518Z,17.6
2018-07-13T01:24:03.707Z,17.6
2018-07-13T01:25:04.891Z,17.6
2018-07-13T01:26:06.098Z,17.6
2018-07-13T01:27:07.320Z,17.7
2018-07-13T01:28:09.241Z,17.6
2018-07-13T01:29:11.216Z,17.6
2018-07-13T01:30:12.423Z,17.6
2018-07-13T01:31:13.635Z,17.6
2018-07-13T01:32:14.852Z,17.6
2018-07-13T01:33:16.046Z,17.7
2018-07-13T01:34:17.267Z,17.7
2018-07-13T01:35:18.595Z,17.7
2018-07-13T01:36:19.829Z,17.6
2018-07-13T01:37:21.036Z,17.6
2018-07-13T01:38:22.274Z,17.6
2018-07-13T01:39:23.449Z,17.6
2018-07-13T01:40:24.795Z,17.5
2018-07-13T01:41:26.008Z,17.5
2018-07-13T01:42:27.216Z,17.5
2018-07-13T01:43:28.713Z,17.5
2018-07-13T01:44:29.915Z,17.5
2018-07-13T01:45:31.166Z,17.6
2018-07-13T01:46:32.356Z,17.5
2018-07-13T01:47:33.593Z,17.5
2018-07-13T01:48:34.844Z,17.5
2018-07-13T01:49:36.059Z,17.5
2018-07-13T01:50:37.279Z,17.5
2018-07-13T01:51:38.511Z,17.4
2018-07-13T01:52:39.695Z,17.4
2018-07-13T01:53:41.311Z,17.4
2018-07-13T01:54:42.547Z,17.4
2018-07-13T01:55:44.101Z,17.4
2018-07-13T01:56:45.425Z,17.3
2018-07-13T01:57:46.603Z,17.3
2018-07-13T01:58:47.830Z,17.3
2018-07-13T01:59:49.098Z,17.3
2018-07-13T02:00:50.303Z,17.3
2018-07-13T02:01:51.448Z,17.3
2018-07-13T02:02:52.627Z,17.3
2018-07-13T02:03:53.862Z,17.3
2018-07-13T02:04:55.041Z,17.1
2018-07-13T02:05:56.219Z,17.2
2018-07-13T02:06:58.510Z,17.2
2018-07-13T02:07:59.708Z,17.1
2018-07-13T02:09:01.013Z,17.2
2018-07-13T02:10:02.175Z,17.1
2018-07-13T02:11:03.371Z,17.2
2018-07-13T02:12:04.566Z,17.1
2018-07-13T02:13:05.782Z,17.2
2018-07-13T02:14:07.198Z,17.1
2018-07-13T02:15:08.400Z,17.2
2018-07-13T02:16:09.614Z,17.1
2018-07-13T02:17:10.792Z,17.1
2018-07-13T02:18:12.081Z,17.1
2018-07-13T02:19:13.296Z,17.1
2018-07-13T02:20:14.517Z,17.1
2018-07-13T02:21:15.705Z,17.1
2018-07-13T02:22:16.947Z,17.1
2018-07-13T02:23:18.203Z,17.1
2018-07-13T02:24:19.446Z,17.1
2018-07-13T02:25:20.659Z,17.1
2018-07-13T02:26:21.839Z,17
2018-07-13T02:27:23.019Z,17
2018-07-13T02:28:24.223Z,17
2018-07-13T02:29:25.495Z,17
2018-07-13T02:30:26.696Z,16.9
2018-07-13T02:31:27.911Z,17
2018-07-13T02:32:29.139Z,16.9
2018-07-13T02:33:30.354Z,16.8
2018-07-13T02:34:31.600Z,16.9
2018-07-13T02:35:32.779Z,16.8
2018-07-13T02:36:34.075Z,16.8
2018-07-13T02:37:35.244Z,16.8
2018-07-13T02:38:36.495Z,16.8
2018-07-13T02:39:37.763Z,16.8
2018-07-13T02:40:38.974Z,16.8
2018-07-13T02:41:40.159Z,16.8
2018-07-13T02:42:41.467Z,16.8
2018-07-13T02:43:42.674Z,16.8
2018-07-13T02:44:44.084Z,16.9
2018-07-13T02:45:45.260Z,16.9
2018-07-13T02:46:46.445Z,16.9
2018-07-13T02:47:47.625Z,16.9
2018-07-13T02:48:48.882Z,16.9
2018-07-13T02:49:50.151Z,16.9
2018-07-13T02:50:51.321Z,16.9
2018-07-13T02:51:52.612Z,17
2018-07-13T02:52:53.800Z,17
2018-07-13T02:53:54.959Z,16.9
2018-07-13T02:54:56.330Z,16.9
2018-07-13T02:55:57.665Z,16.9
2018-07-13T02:56:58.937Z,16.9
2018-07-13T02:58:00.542Z,16.8
2018-07-13T02:59:02.253Z,16.9
2018-07-13T03:00:03.493Z,16.9
2018-07-13T03:01:04.686Z,16.9
2018-07-13T03:02:05.885Z,16.9
2018-07-13T03:03:07.128Z,16.9
2018-07-13T03:04:08.372Z,16.9
2018-07-13T03:05:09.888Z,16.8
2018-07-13T03:06:11.053Z,16.9
2018-07-13T03:07:12.286Z,16.9
2018-07-13T03:08:13.488Z,16.8
2018-07-13T03:09:14.704Z,16.8
2018-07-13T03:10:15.923Z,16.9
2018-07-13T03:11:17.099Z,16.9
2018-07-13T03:12:18.559Z,16.8
2018-07-13T03:13:20.036Z,16.9
2018-07-13T03:14:21.254Z,16.9
2018-07-13T03:15:22.719Z,17
2018-07-13T03:16:24.012Z,17
2018-07-13T03:17:25.293Z,17
2018-07-13T03:18:26.491Z,17
2018-07-13T03:19:27.745Z,17
2018-07-13T03:20:29.045Z,17
2018-07-13T03:21:30.232Z,17.1
2018-07-13T03:22:31.406Z,17.1
2018-07-13T03:23:32.608Z,17
2018-07-13T03:24:33.806Z,16.9
2018-07-13T03:25:35.012Z,16.9
2018-07-13T03:26:36.201Z,16.9
2018-07-13T03:27:37.381Z,16.9
2018-07-13T03:28:38.662Z,16.8
2018-07-13T03:29:39.859Z,16.8
2018-07-13T03:30:41.143Z,16.8
2018-07-13T03:31:42.350Z,16.8
2018-07-13T03:32:43.544Z,16.8
2018-07-13T03:33:44.750Z,16.8
2018-07-13T03:34:45.913Z,16.8
2018-07-13T03:35:47.131Z,16.8
2018-07-13T03:36:48.331Z,16.8
2018-07-13T03:37:49.662Z,16.8
2018-07-13T03:38:50.887Z,16.8
2018-07-13T03:39:52.092Z,16.8
2018-07-13T03:40:53.323Z,16.8
2018-07-13T03:41:54.517Z,16.8
2018-07-13T03:42:55.703Z,16.8
2018-07-13T03:43:56.907Z,16.8
2018-07-13T03:44:58.070Z,16.7
2018-07-13T03:45:59.935Z,16.8
2018-07-13T03:47:01.492Z,16.8
2018-07-13T03:48:05.970Z,16.8
2018-07-13T03:49:07.189Z,16.8
2018-07-13T03:50:08.363Z,16.8
2018-07-13T03:51:09.598Z,16.8
2018-07-13T03:52:10.774Z,16.8
2018-07-13T03:53:11.941Z,16.8
2018-07-13T03:54:13.175Z,16.9
2018-07-13T03:55:14.395Z,16.9
2018-07-13T03:56:15.616Z,16.8
2018-07-13T03:57:16.795Z,16.9
2018-07-13T03:58:17.938Z,16.9
2018-07-13T03:59:19.108Z,16.9
2018-07-13T04:00:20.316Z,17
2018-07-13T04:01:21.863Z,17
2018-07-13T04:02:23.462Z,17
2018-07-13T04:03:24.643Z,17
2018-07-13T04:04:25.843Z,17
2018-07-13T04:05:27.071Z,17
2018-07-13T04:06:28.323Z,17.1
2018-07-13T04:07:29.541Z,17.1
2018-07-13T04:08:30.714Z,17
2018-07-13T04:09:31.911Z,17.1
2018-07-13T04:10:33.095Z,17.1
2018-07-13T04:11:34.319Z,17.1
2018-07-13T04:12:35.579Z,17.2
2018-07-13T04:13:36.778Z,17.1
2018-07-13T04:14:38.034Z,17.1
2018-07-13T04:15:39.198Z,17.1
2018-07-13T04:16:40.487Z,17.1
2018-07-13T04:17:41.759Z,17.1
2018-07-13T04:18:42.996Z,17.3
2018-07-13T04:19:44.157Z,17.4
2018-07-13T04:20:45.365Z,17.3
2018-07-13T04:21:46.567Z,17.3
2018-07-13T04:22:47.761Z,17.3
2018-07-13T04:23:48.948Z,17.5
2018-07-13T04:24:50.108Z,17.6
2018-07-13T04:25:51.295Z,17.7
2018-07-13T04:26:52.545Z,17.8
2018-07-13T04:27:53.773Z,17.9
2018-07-13T04:28:54.999Z,18.2
2018-07-13T04:29:56.180Z,18.4
2018-07-13T04:30:57.409Z,18.5
2018-07-13T04:31:58.683Z,18.6
2018-07-13T04:32:59.838Z,18.8
2018-07-13T04:34:01.073Z,19
2018-07-13T04:35:02.590Z,19.2
2018-07-13T04:36:04.234Z,19.4
2018-07-13T04:37:05.543Z,19.6
2018-07-13T04:38:06.749Z,19.8
2018-07-13T04:39:07.977Z,20
2018-07-13T04:40:09.238Z,20.2
2018-07-13T04:41:10.497Z,20.1
2018-07-13T04:42:11.641Z,20.1
2018-07-13T04:43:12.882Z,20.3
2018-07-13T04:44:14.049Z,20.7
2018-07-13T04:45:15.220Z,20.9
2018-07-13T04:46:16.409Z,20.9
2018-07-13T04:47:17.886Z,21.1
2018-07-13T04:48:19.053Z,21.3
2018-07-13T04:49:20.269Z,21.4
2018-07-13T04:50:21.529Z,21.4
2018-07-13T04:51:23.295Z,21.8
2018-07-13T04:52:24.606Z,21.8
2018-07-13T04:53:25.784Z,22
2018-07-13T04:54:26.949Z,22.1
2018-07-13T04:55:28.151Z,22.3
2018-07-13T04:56:29.406Z,22
2018-07-13T04:57:30.611Z,22.1
2018-07-13T04:58:31.795Z,22.5
2018-07-13T04:59:32.954Z,22.1
2018-07-13T05:00:34.141Z,22.3
2018-07-13T05:01:35.345Z,22
2018-07-13T05:02:36.662Z,22.2
2018-07-13T05:03:37.849Z,22.2
2018-07-13T05:04:39.094Z,22.4
2018-07-13T05:05:40.289Z,22.2
2018-07-13T05:06:41.471Z,22.3
2018-07-13T05:07:42.721Z,22
2018-07-13T05:08:43.914Z,22.3
2018-07-13T05:09:45.407Z,22.3
2018-07-13T05:10:46.639Z,22.3
2018-07-13T05:11:48.123Z,22.2
2018-07-13T05:12:49.728Z,22.5
2018-07-13T05:13:51.424Z,22.5
2018-07-13T05:14:52.989Z,22.6
2018-07-13T05:15:54.353Z,22.9
2018-07-13T05:16:55.686Z,22.9
2018-07-13T05:17:56.890Z,22.9
2018-07-13T05:18:58.080Z,22.5
2018-07-13T05:19:59.362Z,22.6
2018-07-13T05:21:00.577Z,22.8
2018-07-13T05:22:01.814Z,22.9
2018-07-13T05:23:03.249Z,23.1
2018-07-13T05:24:04.413Z,23.2
2018-07-13T05:25:05.589Z,23.2
2018-07-13T05:26:06.761Z,23.5
2018-07-13T05:27:07.959Z,23.2
2018-07-13T05:28:09.445Z,23.5
2018-07-13T05:29:11.268Z,23.2
2018-07-13T05:30:12.546Z,23.3
2018-07-13T05:31:13.780Z,23.4
2018-07-13T05:32:14.964Z,23.7
2018-07-13T05:33:16.194Z,23.9
2018-07-13T05:34:17.371Z,23.9
2018-07-13T05:35:18.918Z,24.1
2018-07-13T05:36:20.163Z,24.3
2018-07-13T05:37:21.329Z,24.3
2018-07-13T05:38:22.549Z,24.5
2018-07-13T05:39:23.732Z,24.6
2018-07-13T05:40:24.923Z,24.7
2018-07-13T05:41:26.090Z,24.5
2018-07-13T05:42:27.282Z,24.6
2018-07-13T05:43:28.486Z,24.5
2018-07-13T05:44:29.729Z,24.6
2018-07-13T05:45:30.916Z,24.6
2018-07-13T05:46:32.106Z,24.5
2018-07-13T05:47:33.302Z,24.6
2018-07-13T05:48:34.773Z,24.7
2018-07-13T05:49:35.958Z,24.9
2018-07-13T05:50:37.285Z,24.8
2018-07-13T05:51:38.477Z,24.7
2018-07-13T05:52:39.693Z,24.8
2018-07-13T05:53:40.907Z,25.1
2018-07-13T05:54:42.112Z,25.4
2018-07-13T05:55:43.329Z,25.4
2018-07-13T05:56:44.535Z,25.5
2018-07-13T05:57:45.809Z,25.6
2018-07-13T05:58:47.361Z,25.7
2018-07-13T05:59:48.553Z,25.6
2018-07-13T06:00:49.811Z,25.9
2018-07-13T06:01:51.059Z,26
2018-07-13T06:02:52.258Z,26.2
2018-07-13T06:03:53.524Z,26.3
2018-07-13T06:04:54.648Z,26.2
2018-07-13T06:05:55.810Z,26.4
2018-07-13T06:06:56.998Z,26.4
2018-07-13T06:07:58.154Z,26.3
2018-07-13T06:09:03.118Z,26.3
2018-07-13T06:10:05.071Z,26.5
2018-07-13T06:11:06.259Z,26.4
2018-07-13T06:12:07.458Z,26.4
2018-07-13T06:13:08.702Z,26.4
2018-07-13T06:14:09.943Z,26.7
2018-07-13T06:15:11.208Z,26.7
2018-07-13T06:16:12.361Z,26.8
2018-07-13T06:17:13.559Z,26.7
2018-07-13T06:18:14.776Z,27
2018-07-13T06:19:16.027Z,26.8
2018-07-13T06:20:17.274Z,26.9
2018-07-13T06:21:18.430Z,27
2018-07-13T06:22:19.705Z,26.8
2018-07-13T06:23:22.746Z,26.8
2018-07-13T06:24:24.019Z,27.1
2018-07-13T06:25:25.238Z,27.3
2018-07-13T06:26:26.403Z,27.4
2018-07-13T06:27:27.605Z,27.2
2018-07-13T06:28:28.811Z,27.1
2018-07-13T06:29:30.036Z,27.3
2018-07-13T06:30:31.218Z,27.5
2018-07-13T06:31:32.443Z,27.2
2018-07-13T06:32:33.623Z,27.4
2018-07-13T06:33:34.863Z,27.7
2018-07-13T06:34:36.168Z,28
2018-07-13T06:35:37.416Z,28.5
2018-07-13T06:36:38.619Z,28.3
2018-07-13T06:37:39.915Z,28.2
2018-07-13T06:38:41.134Z,28.2
2018-07-13T06:39:42.377Z,28.2
2018-07-13T06:40:43.531Z,28.2
2018-07-13T06:41:44.714Z,28.4
2018-07-13T06:42:45.897Z,28.4
2018-07-13T06:43:47.071Z,28.4
2018-07-13T06:44:48.323Z,28.4
2018-07-13T06:45:49.502Z,28.4
2018-07-13T06:46:50.739Z,28.4
2018-07-13T06:47:51.920Z,28.4
2018-07-13T06:48:53.118Z,28.7
2018-07-13T06:49:54.773Z,28.8
2018-07-13T06:50:55.939Z,28.8
2018-07-13T06:51:57.129Z,28.7
2018-07-13T06:52:58.563Z,28.7
2018-07-13T06:53:59.833Z,28.9
2018-07-13T06:55:01.102Z,28.9
2018-07-13T06:56:02.319Z,29.1
2018-07-13T06:57:03.554Z,29.1
2018-07-13T06:58:04.767Z,29
2018-07-13T06:59:06.053Z,29
2018-07-13T07:00:07.311Z,29
2018-07-13T07:01:08.493Z,29.1
2018-07-13T07:02:11.553Z,29.1
2018-07-13T07:03:19.509Z,29.2
2018-07-13T07:04:20.721Z,29.2
2018-07-13T07:05:22.017Z,29.2
2018-07-13T07:06:23.192Z,29.2
2018-07-13T07:07:24.413Z,29.1
2018-07-13T07:08:25.620Z,29.2
2018-07-13T07:09:26.783Z,29.4
2018-07-13T07:10:28.013Z,29.1
2018-07-13T07:11:29.188Z,29.5
2018-07-13T07:12:30.462Z,29.4
2018-07-13T07:13:31.626Z,29.5
2018-07-13T07:14:33.844Z,29.7
2018-07-13T07:15:35.075Z,29.1
2018-07-13T07:16:36.295Z,29.2
2018-07-13T07:17:37.511Z,29.5
2018-07-13T07:18:38.644Z,29.5
2018-07-13T07:19:39.939Z,29.5
2018-07-13T07:20:41.239Z,29.7
2018-07-13T07:21:42.415Z,29.8
2018-07-13T07:22:43.590Z,29.9
2018-07-13T07:23:45.090Z,30.1
2018-07-13T07:24:46.268Z,30.1
2018-07-13T07:25:47.463Z,30
2018-07-13T07:26:48.617Z,30.2
2018-07-13T07:27:50.035Z,30.2
2018-07-13T07:28:51.310Z,30.2
2018-07-13T07:29:52.552Z,30.3
2018-07-13T07:30:53.892Z,30.3
2018-07-13T07:31:55.103Z,30.3
2018-07-13T07:32:56.287Z,30.3
2018-07-13T07:33:57.476Z,30.3
2018-07-13T07:34:58.682Z,30.3
2018-07-13T07:36:00.012Z,30.1
2018-07-13T07:37:01.234Z,30.2
2018-07-13T07:38:02.432Z,30.1
2018-07-13T07:39:03.739Z,30.1
2018-07-13T07:40:04.923Z,30.2
2018-07-13T07:41:06.178Z,30.4
2018-07-13T07:42:07.629Z,30.4
2018-07-13T07:43:10.045Z,30.3
2018-07-13T07:44:11.429Z,30.3
2018-07-13T07:45:12.621Z,30.4
2018-07-13T07:46:13.856Z,30.3
2018-07-13T07:47:15.056Z,30.5
2018-07-13T07:48:16.302Z,30.6
2018-07-13T07:49:17.494Z,30.7
2018-07-13T07:50:18.674Z,30.7
2018-07-13T07:51:20.332Z,30.6
2018-07-13T07:52:22.038Z,30.5
2018-07-13T07:53:23.482Z,30.6
2018-07-13T07:54:24.917Z,30.7
2018-07-13T07:55:26.420Z,30.6
2018-07-13T07:56:27.727Z,30.7
2018-07-13T07:57:29.009Z,30.8
2018-07-13T07:58:30.307Z,30.8
2018-07-13T07:59:31.583Z,31
2018-07-13T08:00:32.969Z,31
2018-07-13T08:01:34.449Z,31.1
2018-07-13T08:02:35.746Z,31
2018-07-13T08:03:37.176Z,31
2018-07-13T08:04:38.432Z,31.2
2018-07-13T08:05:39.741Z,31.2
2018-07-13T08:06:41.178Z,31.2
2018-07-13T08:07:42.323Z,31.2
2018-07-13T08:08:43.530Z,31.1
2018-07-13T08:09:44.958Z,31.1
2018-07-13T08:10:46.141Z,31
2018-07-13T08:11:47.379Z,31.2
2018-07-13T08:12:48.612Z,31.1
2018-07-13T08:13:50.012Z,31
2018-07-13T08:14:51.068Z,31.1
2018-07-13T08:15:52.359Z,31.2
2018-07-13T08:16:53.725Z,31.3
2018-07-13T08:17:54.917Z,31.3
2018-07-13T08:18:56.096Z,31.3
2018-07-13T08:19:57.301Z,31.2
2018-07-13T08:20:58.483Z,31.2
2018-07-13T08:21:59.983Z,31.2
2018-07-13T08:23:01.220Z,31.2
2018-07-13T08:24:02.436Z,31.5
2018-07-13T08:25:03.675Z,31.3
2018-07-13T08:26:04.939Z,31.4
2018-07-13T08:27:06.263Z,31.4
2018-07-13T08:28:08.312Z,31.5
2018-07-13T08:29:10.996Z,31.3
2018-07-13T08:30:12.228Z,31
2018-07-13T08:31:13.431Z,31.1
2018-07-13T08:32:14.687Z,31.5
2018-07-13T08:33:15.926Z,31.6
2018-07-13T08:34:17.131Z,31.7
2018-07-13T08:35:18.314Z,31.6
2018-07-13T08:36:19.505Z,31.7
2018-07-13T08:37:22.048Z,31.5
2018-07-13T08:38:26.005Z,31.6
2018-07-13T08:39:27.221Z,31.6
2018-07-13T08:40:28.441Z,31.6
2018-07-13T08:41:29.793Z,31.5
2018-07-13T08:42:31.140Z,31.6
2018-07-13T08:43:32.355Z,31.7
2018-07-13T08:44:33.582Z,31.6
2018-07-13T08:45:34.987Z,31.5
2018-07-13T08:46:36.313Z,31.5
2018-07-13T08:47:37.786Z,31.5
2018-07-13T08:48:39.031Z,31.4
2018-07-13T08:49:40.358Z,31.4
2018-07-13T08:50:41.555Z,31.5
2018-07-13T08:51:43.235Z,31.5
2018-07-13T08:52:44.769Z,31.5
2018-07-13T08:53:45.991Z,31.6
2018-07-13T08:54:47.225Z,31.7
2018-07-13T08:55:48.385Z,31.4
2018-07-13T08:56:49.858Z,31.2
2018-07-13T08:57:51.432Z,31
2018-07-13T08:58:52.626Z,31.2
2018-07-13T08:59:53.893Z,31.1
2018-07-13T09:00:55.056Z,31.2
2018-07-13T09:01:56.228Z,30.9
2018-07-13T09:02:57.462Z,31
2018-07-13T09:03:58.657Z,31.2
2018-07-13T09:04:59.826Z,31.3
2018-07-13T09:06:01.117Z,31.2
2018-07-13T09:07:02.480Z,30.8
2018-07-13T09:08:03.828Z,30.9
2018-07-13T09:09:05.069Z,31.2
2018-07-13T09:10:06.332Z,31.3
2018-07-13T09:11:07.704Z,31.4
2018-07-13T09:12:09.019Z,30.9
2018-07-13T09:13:10.415Z,30.7
2018-07-13T09:14:12.634Z,31
2018-07-13T09:15:13.988Z,31
2018-07-13T09:16:15.214Z,31
2018-07-13T09:17:16.548Z,31.2
2018-07-13T09:18:17.821Z,31.3
2018-07-13T09:19:19.031Z,30.9
2018-07-13T09:20:20.265Z,30.8
2018-07-13T09:21:21.860Z,30.9
2018-07-13T09:22:24.625Z,31
2018-07-13T09:23:25.906Z,31.2
2018-07-13T09:24:27.141Z,31.1
2018-07-13T09:25:28.353Z,31.1
2018-07-13T09:26:29.663Z,31.1
2018-07-13T09:27:31.134Z,31.1
2018-07-13T09:28:32.553Z,31
2018-07-13T09:29:33.863Z,30.8
2018-07-13T09:30:35.276Z,30.9
2018-07-13T09:31:36.530Z,30.7
2018-07-13T09:32:37.833Z,30.7
2018-07-13T09:33:39.642Z,30.9
2018-07-13T09:34:41.337Z,31
2018-07-13T09:35:42.675Z,31
2018-07-13T09:36:43.842Z,30.8
2018-07-13T09:37:45.184Z,31
2018-07-13T09:38:46.441Z,31
2018-07-13T09:39:47.674Z,31
2018-07-13T09:40:49.056Z,30.9
2018-07-13T09:41:50.313Z,30.9
2018-07-13T09:42:51.513Z,30.9
2018-07-13T09:43:53.071Z,31
2018-07-13T09:44:54.342Z,30.9
2018-07-13T09:45:55.567Z,30.9
2018-07-13T09:46:57.048Z,30.7
2018-07-13T09:47:58.571Z,30.9
2018-07-13T09:49:00.022Z,30.8
2018-07-13T09:50:01.376Z,30.7
2018-07-13T09:51:02.574Z,30.8
2018-07-13T09:52:03.780Z,30.8
2018-07-13T09:53:05.517Z,30.7
2018-07-13T09:54:06.986Z,30.8
2018-07-13T09:55:08.206Z,30.9
2018-07-13T09:56:09.455Z,30.9
2018-07-13T09:57:10.860Z,30.9
2018-07-13T09:58:12.076Z,30.8
2018-07-13T09:59:13.310Z,30.4
2018-07-13T10:00:14.525Z,30.5
2018-07-13T10:01:15.754Z,30.5
2018-07-13T10:02:16.993Z,30.7
2018-07-13T10:03:18.252Z,30.6
2018-07-13T10:04:19.540Z,30.6
2018-07-13T10:05:20.852Z,30.6
2018-07-13T10:06:22.161Z,30.6
2018-07-13T10:07:23.346Z,30.5
2018-07-13T10:08:24.572Z,30.5
2018-07-13T10:09:25.812Z,30.5
2018-07-13T10:10:27.035Z,30.6
2018-07-13T10:11:28.270Z,30.4
2018-07-13T10:12:29.500Z,30.4
2018-07-13T10:13:30.890Z,30.5
2018-07-13T10:14:32.173Z,30.5
2018-07-13T10:15:33.388Z,30.4
2018-07-13T10:16:34.608Z,30.2
2018-07-13T10:17:35.854Z,30.3
2018-07-13T10:18:37.128Z,30.4
2018-07-13T10:19:38.494Z,29.9
2018-07-13T10:20:39.806Z,30.1
2018-07-13T10:21:41.104Z,30.2
2018-07-13T10:22:42.359Z,30.2
2018-07-13T10:23:43.616Z,30.2
2018-07-13T10:24:44.913Z,29.9
2018-07-13T10:25:46.158Z,30
2018-07-13T10:26:47.419Z,30
2018-07-13T10:27:48.638Z,30.1
2018-07-13T10:28:50.016Z,30.1
2018-07-13T10:29:56.905Z,30
2018-07-13T10:30:58.112Z,30.1
2018-07-13T10:32:00.590Z,30.2
2018-07-13T10:33:02.332Z,30.1
2018-07-13T10:34:03.558Z,30.2
2018-07-13T10:35:04.787Z,30.2
2018-07-13T10:36:06.002Z,30.2
2018-07-13T10:37:07.235Z,30.1
2018-07-13T10:38:08.474Z,30
2018-07-13T10:39:09.695Z,30.1
2018-07-13T10:40:11.167Z,30
2018-07-13T10:41:12.481Z,30.1
2018-07-13T10:42:13.684Z,30.1
2018-07-13T10:43:14.905Z,30.1
2018-07-13T10:44:16.184Z,30
2018-07-13T10:45:17.358Z,30
2018-07-13T10:46:18.598Z,29.9
2018-07-13T10:47:19.823Z,30
2018-07-13T10:48:21.552Z,29.9
2018-07-13T10:49:23.021Z,29.9
2018-07-13T10:50:24.304Z,30
2018-07-13T10:51:25.517Z,29.8
2018-07-13T10:52:26.753Z,29.9
2018-07-13T10:53:27.982Z,29.9
2018-07-13T10:54:29.250Z,29.7
2018-07-13T10:55:30.716Z,29.8
2018-07-13T10:56:34.290Z,29.7
2018-07-13T10:57:35.544Z,29.7
2018-07-13T10:58:36.812Z,29.8
2018-07-13T10:59:38.132Z,29.8
2018-07-13T11:00:39.398Z,29.8
2018-07-13T11:01:40.693Z,29.8
2018-07-13T11:02:41.917Z,29.7
2018-07-13T11:03:43.102Z,29.7
2018-07-13T11:04:44.319Z,29.6
2018-07-13T11:05:45.567Z,29.6
2018-07-13T11:06:46.901Z,29.5
2018-07-13T11:07:48.142Z,29.6
2018-07-13T11:08:49.358Z,29.6
2018-07-13T11:09:50.691Z,29.6
2018-07-13T11:10:52.285Z,29.6
2018-07-13T11:11:53.514Z,29.6
2018-07-13T11:12:54.779Z,29.3
2018-07-13T11:13:56.183Z,29.3
2018-07-13T11:14:57.311Z,29.2
2018-07-13T11:15:58.654Z,29.4
2018-07-13T11:16:59.849Z,29.5
2018-07-13T11:18:01.208Z,29.5
2018-07-13T11:19:02.436Z,29.5
2018-07-13T11:20:03.667Z,29.4
2018-07-13T11:21:04.927Z,29.2
2018-07-13T11:22:06.268Z,29.2
2018-07-13T11:23:07.500Z,29.3
2018-07-13T11:24:08.841Z,29.3
2018-07-13T11:25:10.190Z,29.2
2018-07-13T11:26:11.711Z,29
2018-07-13T11:27:13.640Z,29.1
2018-07-13T11:28:14.912Z,29.2
2018-07-13T11:29:16.129Z,29.1
2018-07-13T11:30:17.644Z,29.1
2018-07-13T11:31:20.717Z,29
2018-07-13T11:32:21.910Z,29.1
2018-07-13T11:33:23.197Z,29.2
2018-07-13T11:34:24.406Z,29.1
2018-07-13T11:35:25.612Z,29.2
2018-07-13T11:36:26.928Z,29.2
2018-07-13T11:37:28.350Z,29.1
2018-07-13T11:38:29.497Z,29.2
2018-07-13T11:39:30.898Z,29.2
2018-07-13T11:40:32.203Z,29
2018-07-13T11:41:33.510Z,29.2
2018-07-13T11:42:34.715Z,29.1
2018-07-13T11:43:36.006Z,29
2018-07-13T11:44:37.211Z,29.1
2018-07-13T11:45:38.566Z,29
2018-07-13T11:46:39.879Z,29
2018-07-13T11:47:41.204Z,29
2018-07-13T11:48:42.382Z,29
2018-07-13T11:49:43.652Z,29
2018-07-13T11:50:44.958Z,29
2018-07-13T11:51:46.233Z,29
2018-07-13T11:52:47.426Z,29
2018-07-13T11:53:48.670Z,28.9
2018-07-13T11:54:49.891Z,28.9
2018-07-13T11:55:51.256Z,28.8
2018-07-13T11:56:52.732Z,29
2018-07-13T11:57:53.966Z,29
2018-07-13T11:58:55.193Z,29
2018-07-13T11:59:56.394Z,28.9
2018-07-13T12:00:57.641Z,29
2018-07-13T12:01:58.908Z,28.9
2018-07-13T12:03:00.148Z,29
2018-07-13T12:04:01.702Z,29
2018-07-13T12:05:03.030Z,29
2018-07-13T12:06:04.256Z,29
2018-07-13T12:07:05.536Z,29
2018-07-13T12:08:06.789Z,28.8
2018-07-13T12:09:08.010Z,28.9
2018-07-13T12:10:09.220Z,28.9
2018-07-13T12:11:10.445Z,28.9
2018-07-13T12:12:11.795Z,28.9
2018-07-13T12:13:13.040Z,28.7
2018-07-13T12:14:14.299Z,28.7
2018-07-13T12:15:15.516Z,28.8
2018-07-13T12:16:16.792Z,28.6
2018-07-13T12:17:18.641Z,28.6
2018-07-13T12:18:23.596Z,28.7
2018-07-13T12:19:24.809Z,28.7
2018-07-13T12:20:25.981Z,28.7
2018-07-13T12:21:27.454Z,28.6
2018-07-13T12:22:28.736Z,28.7
2018-07-13T12:23:29.931Z,28.7
2018-07-13T12:24:31.224Z,28.7
2018-07-13T12:25:32.408Z,28.6
2018-07-13T12:26:33.606Z,28.6
2018-07-13T12:27:35.171Z,28.7
2018-07-13T12:28:36.555Z,28.6
2018-07-13T12:29:38.247Z,28.6
2018-07-13T12:30:39.560Z,28.6
2018-07-13T12:31:40.848Z,28.7
2018-07-13T12:32:42.139Z,28.7
2018-07-13T12:33:43.334Z,28.7
2018-07-13T12:34:44.526Z,28.8
2018-07-13T12:35:45.716Z,28.7
2018-07-13T12:36:46.896Z,28.6
2018-07-13T12:37:48.460Z,28.5
2018-07-13T12:38:49.664Z,28.4
2018-07-13T12:39:51.110Z,28.6
2018-07-13T12:40:52.347Z,28.6
2018-07-13T12:41:53.551Z,28.5
2018-07-13T12:42:54.905Z,28.6
2018-07-13T12:43:56.161Z,28.7
2018-07-13T12:44:57.370Z,28.6
2018-07-13T12:45:58.650Z,28.7
2018-07-13T12:46:59.813Z,28.6
2018-07-13T12:48:01.157Z,28.4
2018-07-13T12:49:02.688Z,28.3
2018-07-13T12:50:04.192Z,28.5
2018-07-13T12:51:05.417Z,28.6
2018-07-13T12:52:06.709Z,28.5
2018-07-13T12:53:08.042Z,28.6
2018-07-13T12:54:09.504Z,28.7
2018-07-13T12:55:10.562Z,28.6
2018-07-13T12:56:11.860Z,28.6
2018-07-13T12:57:13.859Z,28.4
2018-07-13T12:58:16.967Z,28.5
2018-07-13T12:59:18.389Z,28.5
2018-07-13T13:00:19.794Z,28.4
2018-07-13T13:01:21.162Z,28.4
2018-07-13T13:02:22.390Z,28.5
2018-07-13T13:03:23.748Z,28.4
2018-07-13T13:04:24.926Z,28.4
2018-07-13T13:05:26.188Z,28.4
2018-07-13T13:06:27.425Z,28.4
2018-07-13T13:07:29.033Z,28.5
2018-07-13T13:08:30.285Z,28.5
2018-07-13T13:09:31.604Z,28.4
2018-07-13T13:10:32.903Z,28.4
2018-07-13T13:11:34.303Z,28.3
2018-07-13T13:12:35.569Z,28.4
2018-07-13T13:13:36.822Z,28.3
2018-07-13T13:14:38.062Z,28.4
2018-07-13T13:15:39.302Z,28.3
2018-07-13T13:16:40.544Z,28.3
2018-07-13T13:17:41.938Z,28.4
2018-07-13T13:18:43.158Z,28.2
2018-07-13T13:19:44.375Z,28.3
2018-07-13T13:20:45.599Z,28.3
2018-07-13T13:21:46.914Z,28.3
2018-07-13T13:22:48.078Z,28.3
2018-07-13T13:23:49.328Z,28.3
2018-07-13T13:24:50.556Z,28.3
2018-07-13T13:25:51.852Z,28.3
2018-07-13T13:26:53.061Z,28.4
2018-07-13T13:27:54.310Z,28.4
2018-07-13T13:28:55.569Z,28.4
2018-07-13T13:29:56.762Z,28.4
2018-07-13T13:30:58.044Z,28.2
2018-07-13T13:31:59.271Z,28.3
2018-07-13T13:33:00.483Z,28.3
2018-07-13T13:34:01.904Z,28.3
2018-07-13T13:35:03.153Z,28.4
2018-07-13T13:36:04.376Z,28.4
2018-07-13T13:37:05.604Z,28.4
2018-07-13T13:38:06.835Z,28.4
2018-07-13T13:39:08.096Z,28.4
2018-07-13T13:40:09.279Z,28.4
2018-07-13T13:41:10.581Z,28.4
2018-07-13T13:42:11.903Z,28.3